createdAt,value
2023-05-06T00:00:49.762Z,2.03
2023-05-06T00:03:21.626Z,1.60
2023-05-06T00:05:53.189Z,1.67
2023-05-06T00:08:25.001Z,1.77
2023-05-06T00:10:56.489Z,1.10
2023-05-06T00:13:28.259Z,1.67
2023-05-06T00:15:59.732Z,2.05
2023-05-06T00:18:31.564Z,1.13
2023-05-06T00:21:03.062Z,1.13
2023-05-06T00:23:34.536Z,1.52
2023-05-06T00:26:05.995Z,1.38
2023-05-06T00:28:37.476Z,1.40
2023-05-06T00:31:09.274Z,1.60
2023-05-06T00:33:40.738Z,1.58
2023-05-06T00:36:12.229Z,2.03
2023-05-06T00:38:43.684Z,1.85
2023-05-06T00:41:15.646Z,2.22
2023-05-06T00:43:47.172Z,2.10
2023-05-06T00:46:18.992Z,1.50
2023-05-06T00:48:50.489Z,1.63
2023-05-06T00:51:22.375Z,1.67
2023-05-06T00:53:53.821Z,1.40
2023-05-06T00:56:25.461Z,1.50
2023-05-06T00:58:57.271Z,2.10
2023-05-06T01:01:29.202Z,1.20
2023-05-06T01:04:01.144Z,1.75
2023-05-06T01:06:32.676Z,1.60
2023-05-06T01:09:04.458Z,1.42
2023-05-06T01:11:35.939Z,1.77
2023-05-06T01:14:07.785Z,1.90
2023-05-06T01:16:39.328Z,1.38
2023-05-06T01:19:11.286Z,1.77
2023-05-06T01:21:42.735Z,1.73
2023-05-06T01:24:14.510Z,2.00
2023-05-06T01:26:45.941Z,1.90
2023-05-06T01:29:17.726Z,1.52
2023-05-06T01:31:49.512Z,1.83
2023-05-06T01:34:21.235Z,1.58
2023-05-06T01:36:53.007Z,1.60
2023-05-06T01:39:24.473Z,2.05
2023-05-06T01:41:56.298Z,1.50
2023-05-06T01:44:27.802Z,1.88
2023-05-06T01:46:59.611Z,2.30
2023-05-06T01:49:31.069Z,1.65
2023-05-06T01:52:02.989Z,2.13
2023-05-06T01:54:34.503Z,1.53
2023-05-06T01:57:06.457Z,1.85
2023-05-06T01:59:37.933Z,2.03
2023-05-06T02:02:09.841Z,1.45
2023-05-06T02:04:41.819Z,1.38
2023-05-06T02:07:13.274Z,1.65
2023-05-06T02:09:45.198Z,1.80
2023-05-06T02:12:16.674Z,1.52
2023-05-06T02:14:48.465Z,2.10
2023-05-06T02:17:19.950Z,1.70
2023-05-06T02:19:51.598Z,1.60
2023-05-06T02:22:23.071Z,2.42
2023-05-06T02:24:54.725Z,1.70
2023-05-06T02:27:26.465Z,2.15
2023-05-06T02:29:58.217Z,1.95
2023-05-06T02:32:29.857Z,1.50
2023-05-06T02:35:01.302Z,1.30
2023-05-06T02:37:33.124Z,1.40
2023-05-06T02:40:04.603Z,1.63
2023-05-06T02:42:36.109Z,1.30
2023-05-06T02:45:07.754Z,1.27
2023-05-06T02:47:39.465Z,1.33
2023-05-06T02:50:10.936Z,1.52
2023-05-06T02:52:42.677Z,1.35
2023-05-06T02:55:14.166Z,1.70
2023-05-06T02:57:45.881Z,1.58
2023-05-06T03:00:17.642Z,1.48
2023-05-06T03:02:49.449Z,1.48
2023-05-06T03:05:21.282Z,1.63
2023-05-06T03:07:52.732Z,1.58
2023-05-06T03:10:24.485Z,1.55
2023-05-06T03:12:56.036Z,2.22
2023-05-06T03:15:27.759Z,1.45
2023-05-06T03:17:59.242Z,1.73
2023-05-06T03:20:31.049Z,1.23
2023-05-06T03:23:02.506Z,1.67
2023-05-06T03:25:34.004Z,1.73
2023-05-06T03:28:05.467Z,1.55
2023-05-06T03:30:36.975Z,2.30
2023-05-06T03:33:08.938Z,1.30
2023-05-06T03:35:40.431Z,1.88
2023-05-06T03:38:11.881Z,1.90
2023-05-06T03:40:43.334Z,2.00
2023-05-06T03:43:15.158Z,2.10
2023-05-06T03:45:46.685Z,1.92
2023-05-06T03:48:18.617Z,1.73
2023-05-06T03:50:51.053Z,1.42
2023-05-06T03:53:23.018Z,2.05
2023-05-06T03:55:59.167Z,2.17
2023-05-06T03:58:30.985Z,2.03
2023-05-06T04:01:02.890Z,2.15
2023-05-06T04:03:34.423Z,2.50
2023-05-06T04:06:06.205Z,1.55
2023-05-06T04:08:37.712Z,2.28
2023-05-06T04:11:09.345Z,1.77
2023-05-06T04:13:40.813Z,1.55
2023-05-06T04:16:12.694Z,1.98
2023-05-06T04:18:44.195Z,1.27
2023-05-06T04:21:16.069Z,1.88
2023-05-06T04:23:47.537Z,1.35
2023-05-06T04:26:19.326Z,1.90
2023-05-06T04:28:50.880Z,1.50
2023-05-06T04:31:22.676Z,2.40
2023-05-06T04:33:54.329Z,1.90
2023-05-06T04:36:25.759Z,2.20
2023-05-06T04:38:57.531Z,1.67
2023-05-06T04:41:28.996Z,1.52
2023-05-06T04:44:00.843Z,1.73
2023-05-06T04:46:32.279Z,1.55
2023-05-06T04:49:04.051Z,2.05
2023-05-06T04:51:35.500Z,1.38
2023-05-06T04:54:07.340Z,1.85
2023-05-06T04:56:38.808Z,1.85
2023-05-06T04:59:10.472Z,1.85
2023-05-06T05:01:42.309Z,1.50
2023-05-06T05:04:13.813Z,1.85
2023-05-06T05:06:45.438Z,2.15
2023-05-06T05:09:16.900Z,2.05
2023-05-06T05:11:48.722Z,1.90
2023-05-06T05:14:20.168Z,1.75
2023-05-06T05:16:51.692Z,2.00
2023-05-06T05:19:23.174Z,1.95
2023-05-06T05:21:55.006Z,1.85
2023-05-06T05:24:26.801Z,1.67
2023-05-06T05:26:58.602Z,2.55
2023-05-06T05:29:30.212Z,1.30
2023-05-06T05:32:01.706Z,1.60
2023-05-06T05:34:33.539Z,1.67
2023-05-06T05:37:04.996Z,1.55
2023-05-06T05:39:36.486Z,2.22
2023-05-06T05:42:07.948Z,1.83
2023-05-06T05:44:39.464Z,2.28
2023-05-06T05:47:10.995Z,1.52
2023-05-06T05:49:42.710Z,1.38
2023-05-06T05:52:14.149Z,1.42
2023-05-06T05:54:45.905Z,1.83
2023-05-06T05:57:17.724Z,1.80
2023-05-06T05:59:49.470Z,2.05
2023-05-06T06:02:23.731Z,1.85
2023-05-06T06:04:55.353Z,2.15
2023-05-06T06:07:27.259Z,1.48
2023-05-06T06:09:58.736Z,2.05
2023-05-06T06:12:30.365Z,2.17
2023-05-06T06:15:01.822Z,1.52
2023-05-06T06:17:35.730Z,2.20
2023-05-06T06:20:07.255Z,1.70
2023-05-06T06:22:38.737Z,2.45
2023-05-06T06:25:10.919Z,1.98
2023-05-06T06:27:42.904Z,2.15
2023-05-06T06:30:14.894Z,1.88
2023-05-06T06:32:46.430Z,1.98
2023-05-06T06:35:18.392Z,2.28
2023-05-06T06:37:49.863Z,2.17
2023-05-06T06:40:21.571Z,1.95
2023-05-06T06:42:53.028Z,1.63
2023-05-06T06:45:24.647Z,2.00
2023-05-06T06:47:56.150Z,2.35
2023-05-06T06:50:27.951Z,1.73
2023-05-06T06:52:59.412Z,1.95
2023-05-06T06:55:31.181Z,1.95
2023-05-06T06:58:02.989Z,2.42
2023-05-06T07:00:34.495Z,1.75
2023-05-06T07:03:06.628Z,2.13
2023-05-06T07:05:38.175Z,2.35
2023-05-06T07:08:09.651Z,1.50
2023-05-06T07:10:41.105Z,2.33
2023-05-06T07:13:12.960Z,1.83
2023-05-06T07:15:44.525Z,2.75
2023-05-06T07:18:16.060Z,2.08
2023-05-06T07:20:47.615Z,1.70
2023-05-06T07:23:19.272Z,1.75
2023-05-06T07:25:50.960Z,2.15
2023-05-06T07:28:22.872Z,1.55
2023-05-06T07:30:54.582Z,1.90
2023-05-06T07:33:26.122Z,1.95
2023-05-06T07:35:58.043Z,2.15
2023-05-06T07:38:29.519Z,2.00
2023-05-06T07:41:02.129Z,2.30
2023-05-06T07:43:33.569Z,1.90
2023-05-06T07:46:05.556Z,3.47
2023-05-06T07:48:37.016Z,2.13
2023-05-06T07:51:08.621Z,2.45
2023-05-06T07:53:40.147Z,2.28
2023-05-06T07:56:12.106Z,3.05
2023-05-06T07:58:43.918Z,2.38
2023-05-06T08:01:15.352Z,1.70
2023-05-06T08:03:47.477Z,1.90
2023-05-06T08:06:19.002Z,1.88
2023-05-06T08:08:50.471Z,2.00
2023-05-06T08:11:21.939Z,2.00
2023-05-06T08:13:53.820Z,2.28
2023-05-06T08:16:25.775Z,1.98
2023-05-06T08:18:57.628Z,1.80
2023-05-06T08:21:29.126Z,2.58
2023-05-06T08:24:00.956Z,2.00
2023-05-06T08:26:32.907Z,2.75
2023-05-06T08:29:04.695Z,2.83
2023-05-06T08:31:36.271Z,2.78
2023-05-06T08:34:07.771Z,2.28
2023-05-06T08:36:39.247Z,2.60
2023-05-06T08:39:10.709Z,2.28
2023-05-06T08:41:42.515Z,2.42
2023-05-06T08:44:13.990Z,1.90
2023-05-06T08:46:45.679Z,2.03
2023-05-06T08:49:17.133Z,2.50
2023-05-06T08:51:48.854Z,2.40
2023-05-06T08:54:20.305Z,2.58
2023-05-06T08:56:52.088Z,2.20
2023-05-06T08:59:23.830Z,2.15
2023-05-06T09:01:55.694Z,2.67
2023-05-06T09:04:27.687Z,2.42
2023-05-06T09:06:59.146Z,2.78
2023-05-06T09:09:31.078Z,2.28
2023-05-06T09:12:02.507Z,2.17
2023-05-06T09:14:36.923Z,2.17
2023-05-06T09:17:08.419Z,2.47
2023-05-06T09:19:39.922Z,2.58
2023-05-06T09:22:11.396Z,2.70
2023-05-06T09:24:43.168Z,2.38
2023-05-06T09:27:15.291Z,2.47
2023-05-06T09:29:47.158Z,2.33
2023-05-06T09:32:18.963Z,2.40
2023-05-06T09:34:50.473Z,2.25
2023-05-06T09:37:22.068Z,2.30
2023-05-06T09:39:53.519Z,2.20
2023-05-06T09:42:25.350Z,2.30
2023-05-06T09:44:58.120Z,2.45
2023-05-06T09:47:30.856Z,2.53
2023-05-06T09:50:02.485Z,2.45
2023-05-06T09:52:33.947Z,2.40
2023-05-06T09:55:06.053Z,1.83
2023-05-06T09:57:37.545Z,2.23
2023-05-06T10:00:09.401Z,2.38
2023-05-06T10:02:41.095Z,2.10
2023-05-06T10:05:13.639Z,2.35
2023-05-06T10:07:45.529Z,2.75
2023-05-06T10:10:17.536Z,2.15
2023-05-06T10:12:49.013Z,1.90
2023-05-06T10:15:20.898Z,1.70
2023-05-06T10:17:52.382Z,2.22
2023-05-06T10:20:24.174Z,1.85
2023-05-06T10:22:55.965Z,1.95
2023-05-06T10:25:28.001Z,1.65
2023-05-06T10:27:59.651Z,1.80
2023-05-06T10:30:31.428Z,1.97
2023-05-06T10:33:03.308Z,1.58
2023-05-06T10:35:34.867Z,2.00
2023-05-06T10:38:06.371Z,1.77
2023-05-06T10:40:37.821Z,1.63
2023-05-06T10:43:09.794Z,1.60
2023-05-06T10:45:41.292Z,1.40
2023-05-06T10:48:13.011Z,1.77
2023-05-06T10:50:46.694Z,1.30
2023-05-06T10:53:18.637Z,1.90
2023-05-06T10:55:50.306Z,1.38
2023-05-06T10:58:21.738Z,1.75
2023-05-06T11:00:53.646Z,1.90
2023-05-06T11:03:25.329Z,2.17
2023-05-06T11:05:57.036Z,1.98
2023-05-06T11:08:28.478Z,1.50
2023-05-06T11:11:00.437Z,2.00
2023-05-06T11:13:32.016Z,1.40
2023-05-06T11:16:03.545Z,1.60
2023-05-06T11:18:35.006Z,1.63
2023-05-06T11:21:06.994Z,1.70
2023-05-06T11:23:38.441Z,1.30
2023-05-06T11:26:09.905Z,1.83
2023-05-06T11:28:41.408Z,1.70
2023-05-06T11:31:12.935Z,1.30
2023-05-06T11:33:44.867Z,1.20
2023-05-06T11:36:16.322Z,1.77
2023-05-06T11:38:47.881Z,1.30
2023-05-06T11:41:19.309Z,1.42
2023-05-06T11:43:50.932Z,1.20
2023-05-06T11:46:22.452Z,1.33
2023-05-06T11:48:54.055Z,1.10
2023-05-06T11:51:25.540Z,1.27
2023-05-06T11:53:57.378Z,1.23
2023-05-06T11:56:29.220Z,0.80
2023-05-06T11:59:00.756Z,1.05
2023-05-06T12:01:32.469Z,1.02
2023-05-06T12:04:04.092Z,0.93
2023-05-06T12:06:35.626Z,1.10
2023-05-06T12:09:07.071Z,1.10
2023-05-06T12:11:38.544Z,1.40
2023-05-06T12:14:10.054Z,1.50
2023-05-06T12:16:41.848Z,1.20
2023-05-06T12:19:13.330Z,1.10
2023-05-06T12:21:44.802Z,1.20
2023-05-06T12:24:16.657Z,1.13
2023-05-06T12:26:48.199Z,1.27
2023-05-06T12:29:19.663Z,1.33
2023-05-06T12:31:51.118Z,1.02
2023-05-06T12:34:22.625Z,1.48
2023-05-06T12:36:54.101Z,1.52
2023-05-06T12:39:25.969Z,0.98
2023-05-06T12:41:57.416Z,1.52
2023-05-06T12:44:29.220Z,1.00
2023-05-06T12:47:00.751Z,1.00
2023-05-06T12:49:32.488Z,1.13
2023-05-06T12:52:03.943Z,1.42
2023-05-06T12:54:35.408Z,1.45
2023-05-06T12:57:07.212Z,1.30
2023-05-06T12:59:38.702Z,1.20
2023-05-06T13:02:10.678Z,1.02
2023-05-06T13:04:42.164Z,1.23
2023-05-06T13:07:13.942Z,1.15
2023-05-06T13:09:45.427Z,1.40
2023-05-06T13:12:17.183Z,1.17
2023-05-06T13:14:48.637Z,1.15
2023-05-06T13:17:20.523Z,1.10
2023-05-06T13:19:52.057Z,1.50
2023-05-06T13:22:23.705Z,1.00
2023-05-06T13:24:55.352Z,1.05
2023-05-06T13:27:27.304Z,1.15
2023-05-06T13:29:59.123Z,1.23
2023-05-06T13:32:30.666Z,1.00
2023-05-06T13:35:02.198Z,1.05
2023-05-06T13:37:33.649Z,1.15
2023-05-06T13:40:05.605Z,1.45
2023-05-06T13:42:37.137Z,1.15
2023-05-06T13:45:08.769Z,1.08
2023-05-06T13:47:40.285Z,0.68
2023-05-06T13:50:12.088Z,1.13
2023-05-06T13:52:43.997Z,1.00
2023-05-06T13:55:16.463Z,1.20
2023-05-06T13:57:49.686Z,1.05
2023-05-06T14:00:21.142Z,0.68
2023-05-06T14:02:52.806Z,0.90
2023-05-06T14:05:24.356Z,1.00
2023-05-06T14:07:56.151Z,1.02
2023-05-06T14:10:27.615Z,0.90
2023-05-06T14:12:59.309Z,0.90
2023-05-06T14:15:30.800Z,1.05
2023-05-06T14:18:02.371Z,1.10
2023-05-06T14:20:33.916Z,0.90
2023-05-06T14:23:05.401Z,1.00
2023-05-06T14:25:36.873Z,0.88
2023-05-06T14:28:08.352Z,1.02
2023-05-06T14:30:39.867Z,0.90
2023-05-06T14:33:11.303Z,0.93
2023-05-06T14:35:42.834Z,0.70
2023-05-06T14:38:14.324Z,1.00
2023-05-06T14:40:46.048Z,0.90
2023-05-06T14:43:17.497Z,0.88
2023-05-06T14:45:49.008Z,0.80
2023-05-06T14:48:20.506Z,1.08
2023-05-06T14:50:52.329Z,0.65
2023-05-06T14:53:23.799Z,0.98
2023-05-06T14:55:55.466Z,0.98
2023-05-06T14:58:27.083Z,0.60
2023-05-06T15:00:58.706Z,0.70
2023-05-06T15:03:30.575Z,1.05
2023-05-06T15:06:02.085Z,0.70
2023-05-06T15:08:33.586Z,0.68
2023-05-06T15:11:05.028Z,0.70
2023-05-06T15:13:36.482Z,0.50
2023-05-06T15:16:09.917Z,0.80
2023-05-06T15:18:42.727Z,0.73
2023-05-06T15:21:14.201Z,0.65
2023-05-06T15:23:45.998Z,0.73
2023-05-06T15:26:17.787Z,0.90
2023-05-06T15:28:49.274Z,0.70
2023-05-06T15:31:21.131Z,0.93
2023-05-06T15:33:52.609Z,0.90
2023-05-06T15:36:24.453Z,0.82
2023-05-06T15:38:57.135Z,0.82
2023-05-06T15:41:30.817Z,0.80
2023-05-06T15:44:02.279Z,0.90
2023-05-06T15:46:33.821Z,0.70
2023-05-06T15:51:39.925Z,0.98
2023-05-06T15:54:11.442Z,1.20
2023-05-06T15:56:43.223Z,1.08
2023-05-06T15:59:15.092Z,1.10
2023-05-06T16:04:21.288Z,0.88
2023-05-06T16:06:52.875Z,0.80
2023-05-06T16:09:24.546Z,1.00
2023-05-06T16:11:56.009Z,0.80
2023-05-06T16:14:27.474Z,0.88
2023-05-06T16:16:58.938Z,1.20
2023-05-06T16:19:30.682Z,1.23
2023-05-06T16:22:02.139Z,1.15
2023-05-06T16:24:33.603Z,1.35
2023-05-06T16:27:05.065Z,0.73
2023-05-06T16:29:36.558Z,0.85
2023-05-06T16:32:08.037Z,1.25
2023-05-06T16:34:40.453Z,1.27
2023-05-06T16:39:44.325Z,1.00
2023-05-06T16:42:16.120Z,1.10
2023-05-06T16:44:47.562Z,1.05
2023-05-06T16:47:19.557Z,1.58
2023-05-06T16:49:51.141Z,1.30
2023-05-06T16:52:22.624Z,0.93
2023-05-06T16:54:54.079Z,1.10
2023-05-06T16:57:25.852Z,1.30
2023-05-06T16:59:57.298Z,1.05
2023-05-06T17:02:29.197Z,1.30
2023-05-06T17:05:00.994Z,1.10
2023-05-06T17:07:32.461Z,1.10
2023-05-06T17:10:04.222Z,1.60
2023-05-06T17:12:35.726Z,1.08
2023-05-06T17:15:07.616Z,1.42
2023-05-06T17:17:39.127Z,0.95
2023-05-06T17:20:11.475Z,0.90
2023-05-06T17:22:43.277Z,1.40
2023-05-06T17:25:15.131Z,1.25
2023-05-06T17:27:46.574Z,1.17
2023-05-06T17:30:18.341Z,1.35
2023-05-06T17:32:49.824Z,1.20
2023-05-06T17:35:21.634Z,0.95
2023-05-06T17:37:53.578Z,1.52
2023-05-06T17:40:25.256Z,0.90
2023-05-06T17:42:57.020Z,1.30
2023-05-06T17:45:28.667Z,1.40
2023-05-06T17:48:00.731Z,1.38
2023-05-06T17:50:32.289Z,1.10
2023-05-06T17:53:04.110Z,1.30
2023-05-06T17:55:35.612Z,1.23
2023-05-06T17:58:07.111Z,1.38
2023-05-06T18:00:38.623Z,0.82
2023-05-06T18:03:10.540Z,1.40
2023-05-06T18:05:42.041Z,1.70
2023-05-06T18:08:13.833Z,1.33
2023-05-06T18:10:45.761Z,1.33
2023-05-06T18:13:17.707Z,1.40
2023-05-06T18:15:49.484Z,1.30
2023-05-06T18:18:20.963Z,1.48
2023-05-06T18:20:52.785Z,1.60
2023-05-06T18:23:24.252Z,1.55
2023-05-06T18:25:56.004Z,1.30
2023-05-06T18:28:27.457Z,1.00
2023-05-06T18:30:59.204Z,1.40
2023-05-06T18:33:30.643Z,1.63
2023-05-06T18:36:02.301Z,1.42
2023-05-06T18:38:33.759Z,1.70
2023-05-06T18:41:05.544Z,1.30
2023-05-06T18:43:37.070Z,1.35
2023-05-06T18:46:08.766Z,1.70
2023-05-06T18:48:40.290Z,1.63
2023-05-06T18:51:11.738Z,1.77
2023-05-06T18:53:43.877Z,1.85
2023-05-06T18:56:15.368Z,1.27
2023-05-06T18:58:47.313Z,1.80
2023-05-06T19:01:18.866Z,1.58
2023-05-06T19:03:50.626Z,1.77
2023-05-06T19:06:22.133Z,1.70
2023-05-06T19:08:53.712Z,1.92
2023-05-06T19:11:25.155Z,2.75
2023-05-06T19:13:56.940Z,1.88
2023-05-06T19:16:28.748Z,1.90
2023-05-06T19:19:00.567Z,2.17
2023-05-06T19:21:32.221Z,1.98
2023-05-06T19:24:03.669Z,2.70
2023-05-06T19:26:35.456Z,2.22
2023-05-06T19:29:06.922Z,2.95
2023-05-06T19:31:38.518Z,2.05
2023-05-06T19:34:10.087Z,1.98
2023-05-06T19:36:41.722Z,2.10
2023-05-06T19:39:13.178Z,1.98
2023-05-06T19:41:45.017Z,2.65
2023-05-06T19:44:16.562Z,2.40
2023-05-06T19:46:48.168Z,2.25
2023-05-06T19:49:19.744Z,2.30
2023-05-06T19:51:51.628Z,2.97
2023-05-06T19:54:23.598Z,2.25
2023-05-06T19:56:55.194Z,2.63
2023-05-06T19:59:27.824Z,2.05
2023-05-06T20:01:59.377Z,2.10
2023-05-06T20:04:31.233Z,3.00
2023-05-06T20:07:02.739Z,3.33
2023-05-06T20:09:34.452Z,2.65
2023-05-06T20:12:05.941Z,2.75
2023-05-06T20:14:37.517Z,2.60
2023-05-06T20:17:09.050Z,2.40
2023-05-06T20:19:40.567Z,2.47
2023-05-06T20:22:12.060Z,2.83
2023-05-06T20:24:43.864Z,2.78
2023-05-06T20:27:15.520Z,2.20
2023-05-06T20:29:47.066Z,2.95
2023-05-06T20:32:18.776Z,2.63
2023-05-06T20:34:50.273Z,3.00
2023-05-06T20:37:22.196Z,2.92
2023-05-06T20:39:53.714Z,2.63
2023-05-06T20:42:25.515Z,3.53
2023-05-06T20:44:56.945Z,3.63
2023-05-06T20:47:28.980Z,2.85
2023-05-06T20:50:00.534Z,3.43
2023-05-06T20:52:32.335Z,3.83
2023-05-06T20:55:04.193Z,3.03
2023-05-06T20:57:36.165Z,3.53
2023-05-06T21:00:07.952Z,3.33
2023-05-06T21:02:41.318Z,3.20
2023-05-06T21:05:14.030Z,3.17
2023-05-06T21:07:45.684Z,3.72
2023-05-06T21:10:17.468Z,3.60
2023-05-06T21:12:49.072Z,2.53
2023-05-06T21:15:20.959Z,2.35
2023-05-06T21:17:52.558Z,3.65
2023-05-06T21:20:24.238Z,3.20
2023-05-06T21:22:55.674Z,3.85
2023-05-06T21:25:27.324Z,3.80
2023-05-06T21:27:58.844Z,3.05
2023-05-06T21:30:30.659Z,3.17
2023-05-06T21:33:02.703Z,3.47
2023-05-06T21:35:34.206Z,3.17
2023-05-06T21:38:06.030Z,3.55
2023-05-06T21:40:37.489Z,3.42
2023-05-06T21:43:09.298Z,3.40
2023-05-06T21:45:40.773Z,3.60
2023-05-06T21:48:12.257Z,2.97
2023-05-06T21:50:43.759Z,3.25
2023-05-06T21:53:15.588Z,2.75
2023-05-06T21:55:47.094Z,3.63
2023-05-06T21:58:18.912Z,3.55
2023-05-06T22:00:50.420Z,3.55
2023-05-06T22:03:22.299Z,3.88
2023-05-06T22:05:53.887Z,3.67
2023-05-06T22:08:25.683Z,3.65
2023-05-06T22:10:57.423Z,2.50
2023-05-06T22:13:29.315Z,4.20
2023-05-06T22:16:01.228Z,4.33
2023-05-06T22:18:32.698Z,2.42
2023-05-06T22:21:04.296Z,3.50
2023-05-06T22:23:35.764Z,2.85
2023-05-06T22:26:07.660Z,2.63
2023-05-06T22:28:39.169Z,3.10
2023-05-06T22:31:10.701Z,3.20
2023-05-06T22:33:42.177Z,2.75
2023-05-06T22:36:14.047Z,4.05
2023-05-06T22:38:45.550Z,3.70
2023-05-06T22:41:17.236Z,3.40
2023-05-06T22:43:49.036Z,3.30
2023-05-06T22:46:20.941Z,3.58
2023-05-06T22:48:52.510Z,3.10
2023-05-06T22:51:23.981Z,3.55
2023-05-06T22:53:55.516Z,2.67
2023-05-06T22:56:27.008Z,3.60
2023-05-06T22:58:58.761Z,3.50
2023-05-06T23:01:30.222Z,3.25
2023-05-06T23:04:02.052Z,3.00
2023-05-06T23:06:33.514Z,3.05
2023-05-06T23:09:05.252Z,2.38
2023-05-06T23:11:36.807Z,4.07
2023-05-06T23:14:08.584Z,2.67
2023-05-06T23:16:40.110Z,3.03
2023-05-06T23:19:11.780Z,3.80
2023-05-06T23:21:43.611Z,3.10
2023-05-06T23:24:15.484Z,3.22
2023-05-06T23:26:46.942Z,2.95
2023-05-06T23:29:18.407Z,2.85
2023-05-06T23:31:50.299Z,2.85
2023-05-06T23:34:21.731Z,2.90
2023-05-06T23:36:53.220Z,3.72
2023-05-06T23:39:24.696Z,3.00
2023-05-06T23:41:56.435Z,2.85
2023-05-06T23:44:27.910Z,2.92
2023-05-06T23:46:59.670Z,3.30
2023-05-06T23:49:31.116Z,3.13
2023-05-06T23:52:02.805Z,2.50
2023-05-06T23:54:34.258Z,3.17
2023-05-06T23:57:06.021Z,3.08
2023-05-06T23:59:37.459Z,3.10
